createdAt,value
2022-08-11T00:01:20.502Z,21.72
2022-08-11T00:06:40.831Z,21.67
2022-08-11T00:11:48.691Z,21.60
2022-08-11T00:17:08.839Z,21.47
2022-08-11T00:22:11.978Z,21.41
2022-08-11T00:27:14.293Z,21.27
2022-08-11T00:32:16.248Z,21.19
2022-08-11T00:37:23.066Z,21.17
2022-08-11T00:42:32.873Z,21.02
2022-08-11T00:48:02.796Z,20.92
2022-08-11T00:53:16.653Z,20.86
2022-08-11T00:58:38.772Z,20.75
2022-08-11T01:03:59.791Z,20.57
2022-08-11T01:09:25.176Z,20.43
2022-08-11T01:15:14.527Z,20.31
2022-08-11T01:20:57.204Z,20.18
2022-08-11T01:26:36.243Z,20.16
2022-08-11T01:31:37.698Z,20.10
2022-08-11T01:37:02.778Z,19.95
2022-08-11T01:42:22.372Z,19.58
2022-08-11T01:47:38.207Z,19.36
2022-08-11T01:53:26.699Z,19.38
2022-08-11T01:58:44.561Z,19.43
2022-08-11T02:04:18.863Z,19.59
2022-08-11T02:09:33.494Z,19.74
2022-08-11T02:14:42.599Z,19.90
2022-08-11T02:20:41.884Z,19.81
2022-08-11T02:25:56.183Z,19.72
2022-08-11T02:31:12.022Z,19.52
2022-08-11T02:36:42.693Z,19.36
2022-08-11T02:41:58.600Z,19.14
2022-08-11T02:47:13.541Z,18.87
2022-08-11T02:52:25.895Z,18.62
2022-08-11T02:57:40.384Z,18.58
2022-08-11T03:03:04.209Z,18.73
2022-08-11T03:08:15.617Z,18.87
2022-08-11T03:13:25.601Z,19.20
2022-08-11T03:18:37.446Z,19.49
2022-08-11T03:23:55.806Z,19.50
2022-08-11T03:29:18.270Z,19.51
2022-08-11T03:34:28.202Z,19.32
2022-08-11T03:39:56.213Z,19.27
2022-08-11T03:45:23.476Z,19.26
2022-08-11T03:50:55.138Z,19.09
2022-08-11T03:56:28.165Z,19.02
2022-08-11T04:02:08.300Z,19.30
2022-08-11T04:07:18.676Z,19.28
2022-08-11T04:12:38.463Z,19.26
2022-08-11T04:18:05.156Z,19.05
2022-08-11T04:24:36.635Z,19.04
2022-08-11T04:29:20.099Z,18.96
2022-08-11T04:34:36.780Z,18.91
2022-08-11T04:40:18.734Z,18.81
2022-08-11T04:46:01.802Z,18.92
2022-08-11T04:51:30.815Z,18.94
2022-08-11T04:56:35.083Z,18.91
2022-08-11T05:01:51.003Z,19.05
2022-08-11T05:07:29.419Z,19.16
2022-08-11T05:12:42.001Z,19.33
2022-08-11T05:18:02.419Z,19.98
2022-08-11T05:23:08.941Z,20.94
2022-08-11T05:28:16.743Z,21.77
2022-08-11T05:33:25.475Z,22.22
2022-08-11T05:38:33.272Z,22.49
2022-08-11T05:43:39.819Z,22.31
2022-08-11T05:49:01.865Z,23.16
2022-08-11T05:54:27.894Z,24.00
2022-08-11T05:59:29.476Z,24.09
2022-08-11T06:04:32.373Z,24.02
2022-08-11T06:09:36.125Z,24.32
2022-08-11T06:14:45.607Z,24.90
2022-08-11T06:19:48.613Z,25.11
2022-08-11T06:29:58.796Z,24.25
2022-08-11T06:35:07.485Z,24.25
2022-08-11T06:40:25.723Z,25.46
2022-08-11T06:45:52.259Z,25.83
2022-08-11T06:51:02.210Z,25.87
2022-08-11T06:56:04.207Z,26.18
2022-08-11T07:01:13.806Z,27.29
2022-08-11T07:06:28.378Z,27.43
2022-08-11T07:12:00.214Z,27.94
2022-08-11T07:17:02.851Z,26.52
2022-08-11T07:22:07.492Z,26.71
2022-08-11T07:27:14.362Z,27.13
2022-08-11T07:32:26.793Z,27.15
2022-08-11T07:37:32.384Z,27.94
2022-08-11T07:42:34.741Z,28.61
2022-08-11T07:47:39.391Z,28.77
2022-08-11T07:52:41.322Z,29.28
2022-08-11T07:58:14.797Z,29.09
2022-08-11T08:03:09.804Z,29.47
2022-08-11T08:08:14.620Z,30.53
2022-08-11T08:13:19.075Z,31.30
2022-08-11T08:18:27.545Z,31.27
2022-08-11T08:23:29.697Z,31.32
2022-08-11T08:28:33.741Z,30.13
2022-08-11T08:33:35.502Z,30.95
2022-08-11T08:38:52.285Z,30.75
2022-08-11T08:44:15.167Z,30.71
2022-08-11T08:49:35.348Z,30.92
2022-08-11T08:54:44.532Z,31.41
2022-08-11T08:59:49.802Z,31.37
2022-08-11T09:04:53.754Z,32.88
2022-08-11T09:09:58.898Z,31.87
2022-08-11T09:15:04.187Z,34.42
2022-08-11T09:20:08.953Z,34.00
2022-08-11T09:25:10.624Z,32.34
2022-08-11T09:30:12.279Z,33.40
2022-08-11T09:35:14.154Z,34.70
2022-08-11T09:40:16.436Z,34.17
2022-08-11T09:45:19.984Z,34.11
2022-08-11T09:50:22.656Z,32.33
2022-08-11T09:55:25.117Z,35.20
2022-08-11T10:00:34.956Z,35.36
2022-08-11T10:05:38.241Z,35.77
2022-08-11T10:10:40.981Z,33.26
2022-08-11T10:15:59.694Z,35.09
2022-08-11T10:21:40.239Z,35.75
2022-08-11T10:26:43.478Z,35.84
2022-08-11T10:31:59.372Z,35.66
2022-08-11T10:37:07.204Z,35.24
2022-08-11T10:42:34.962Z,33.82
2022-08-11T10:47:39.328Z,33.08
2022-08-11T10:52:51.512Z,33.65
2022-08-11T10:58:04.678Z,33.50
2022-08-11T11:03:23.161Z,35.20
2022-08-11T11:08:29.589Z,33.69
2022-08-11T11:13:35.234Z,34.60
2022-08-11T11:18:38.043Z,35.17
2022-08-11T11:23:39.518Z,34.70
2022-08-11T11:28:59.070Z,34.01
2022-08-11T11:34:32.152Z,34.48
2022-08-11T11:39:36.594Z,35.65
2022-08-11T11:44:39.827Z,36.60
2022-08-11T11:49:43.676Z,37.15
2022-08-11T11:54:51.972Z,35.70
2022-08-11T11:59:54.513Z,36.59
2022-08-11T12:04:56.744Z,34.79
2022-08-11T12:09:59.119Z,34.44
2022-08-11T12:15:01.210Z,35.24
2022-08-11T12:20:31.872Z,36.86
2022-08-11T12:25:32.215Z,36.45
2022-08-11T12:30:34.032Z,35.38
2022-08-11T12:35:37.078Z,35.04
2022-08-11T12:41:13.751Z,36.18
2022-08-11T12:46:05.685Z,35.71
2022-08-11T12:51:10.798Z,36.36
2022-08-11T12:56:12.998Z,37.04
2022-08-11T13:01:15.437Z,35.44
2022-08-11T13:06:18.714Z,36.07
2022-08-11T13:11:21.441Z,35.17
2022-08-11T13:16:31.827Z,37.10
2022-08-11T13:21:33.585Z,36.64
2022-08-11T13:26:46.862Z,35.78
2022-08-11T13:31:55.247Z,36.61
2022-08-11T13:37:00.952Z,38.18
2022-08-11T13:42:04.510Z,38.53
2022-08-11T13:47:11.572Z,37.54
2022-08-11T13:52:15.774Z,36.51
2022-08-11T13:58:08.877Z,36.05
2022-08-11T14:02:43.308Z,35.54
2022-08-11T14:08:00.300Z,35.72
2022-08-11T14:13:12.787Z,36.35
2022-08-11T14:18:25.931Z,36.19
2022-08-11T14:23:55.347Z,35.51
2022-08-11T14:29:07.441Z,36.05
2022-08-11T14:34:10.557Z,35.20
2022-08-11T14:39:15.458Z,35.58
2022-08-11T14:44:18.120Z,36.17
2022-08-11T14:49:20.467Z,36.01
2022-08-11T14:54:28.027Z,35.59
2022-08-11T14:59:30.341Z,35.48
2022-08-11T15:04:35.851Z,37.11
2022-08-11T15:10:02.385Z,35.40
2022-08-11T15:15:06.052Z,35.79
2022-08-11T15:20:11.444Z,35.76
2022-08-11T15:25:13.360Z,35.36
2022-08-11T15:30:32.784Z,35.69
2022-08-11T15:35:39.131Z,35.38
2022-08-11T15:40:43.463Z,35.57
2022-08-11T15:45:50.144Z,35.97
2022-08-11T15:50:54.277Z,35.99
2022-08-11T15:55:56.481Z,37.14
2022-08-11T16:01:04.275Z,37.13
2022-08-11T16:06:12.867Z,35.89
2022-08-11T16:11:15.648Z,35.71
2022-08-11T16:16:17.798Z,36.82
2022-08-11T16:21:40.143Z,38.04
2022-08-11T16:27:09.614Z,36.39
2022-08-11T16:32:07.657Z,35.90
2022-08-11T16:37:09.589Z,36.26
2022-08-11T16:43:05.309Z,35.74
2022-08-11T16:48:02.110Z,35.72
2022-08-11T16:52:56.412Z,36.18
2022-08-11T16:57:59.388Z,35.86
2022-08-11T17:03:03.088Z,35.77
2022-08-11T17:08:07.366Z,35.74
2022-08-11T17:13:10.620Z,34.58
2022-08-11T17:18:15.757Z,34.49
2022-08-11T17:23:17.363Z,34.19
2022-08-11T17:28:21.388Z,34.47
2022-08-11T17:33:27.410Z,34.51
2022-08-11T17:38:31.297Z,34.11
2022-08-11T17:43:34.136Z,33.74
2022-08-11T17:48:47.891Z,33.30
2022-08-11T17:54:09.938Z,33.08
2022-08-11T17:59:13.469Z,32.95
2022-08-11T18:04:17.308Z,32.76
2022-08-11T18:09:21.197Z,32.51
2022-08-11T18:14:24.141Z,32.01
2022-08-11T18:19:25.768Z,31.78
2022-08-11T18:24:32.916Z,31.68
2022-08-11T18:29:42.080Z,31.51
2022-08-11T18:34:45.801Z,31.20
2022-08-11T18:40:04.615Z,31.17
2022-08-11T18:45:11.162Z,30.92
2022-08-11T18:50:14.867Z,30.80
2022-08-11T18:55:23.907Z,30.62
2022-08-11T19:00:26.720Z,30.52
2022-08-11T19:06:35.662Z,30.38
2022-08-11T19:10:56.138Z,30.26
2022-08-11T19:15:57.919Z,30.01
2022-08-11T19:21:00.474Z,29.17
2022-08-11T19:26:04.361Z,29.12
2022-08-11T19:31:08.598Z,29.38
2022-08-11T19:36:10.325Z,29.01
2022-08-11T19:41:16.112Z,29.06
2022-08-11T19:46:23.987Z,28.65
2022-08-11T19:51:27.037Z,28.18
2022-08-11T19:56:29.775Z,28.31
2022-08-11T20:01:31.503Z,28.31
2022-08-11T20:06:36.454Z,28.26
2022-08-11T20:11:43.009Z,28.33
2022-08-11T20:16:45.148Z,28.32
2022-08-11T20:21:47.774Z,28.33
2022-08-11T20:26:50.565Z,28.26
2022-08-11T20:31:52.978Z,28.08
2022-08-11T20:36:55.347Z,27.86
2022-08-11T20:41:59.652Z,27.67
2022-08-11T20:47:03.338Z,27.52
2022-08-11T20:52:07.226Z,27.44
2022-08-11T20:57:13.303Z,27.30
2022-08-11T21:02:17.979Z,27.11
2022-08-11T21:07:28.146Z,27.05
2022-08-11T21:12:31.518Z,26.99
2022-08-11T21:17:36.257Z,26.82
2022-08-11T21:23:06.377Z,26.76
2022-08-11T21:28:10.820Z,26.29
2022-08-11T21:33:13.531Z,25.50
2022-08-11T21:38:17.904Z,24.64
2022-08-11T21:43:21.813Z,24.35
2022-08-11T21:48:26.948Z,24.20
2022-08-11T21:53:29.666Z,24.02
2022-08-11T21:58:32.494Z,23.76
2022-08-11T22:03:50.024Z,23.68
2022-08-11T22:08:52.098Z,23.58
2022-08-11T22:14:06.007Z,23.51
2022-08-11T22:19:10.253Z,23.52
2022-08-11T22:24:12.300Z,23.45
2022-08-11T22:29:20.001Z,23.35
2022-08-11T22:34:52.560Z,23.23
2022-08-11T22:40:01.870Z,23.04
2022-08-11T22:45:05.285Z,22.96
2022-08-11T22:50:09.955Z,23.00
2022-08-11T22:55:12.986Z,23.56
2022-08-11T23:00:16.620Z,23.78
2022-08-11T23:05:19.255Z,23.05
2022-08-11T23:10:21.882Z,22.64
2022-08-11T23:15:24.574Z,22.47
2022-08-11T23:20:36.430Z,22.32
2022-08-11T23:25:45.489Z,22.11
2022-08-11T23:30:47.568Z,21.93
2022-08-11T23:35:56.558Z,21.79
2022-08-11T23:41:00.100Z,21.69
2022-08-11T23:46:01.642Z,21.58
2022-08-11T23:51:04.186Z,21.52
2022-08-11T23:56:06.316Z,21.50
